Time;durP1;ratioP1;P1;durP2;ratioP2;P2;SDS_P1;SDS_P2;PMS_P1;PMS_P2;Temp;Humidity;BMP_temperature;BMP_pressure;BME280_temperature;BME280_humidity;BME280_pressure;Samples;Min_cycle;Max_cycle;Signal;HPM_P1;HPM_P2
2022/12/20 00:01:43;;;;;;;19.65;9.88;;;7.30;99.90;;;;;;5060016;28;20067;-71
2022/12/20 00:04:11;;;;;;;20.08;9.30;;;7.30;99.90;;;;;;5061479;28;20025;-70
2022/12/20 00:06:37;;;;;;;18.20;9.55;;;7.30;99.90;;;;;;5060117;28;20021;-73
2022/12/20 00:09:05;;;;;;;17.38;8.93;;;7.30;99.90;;;;;;5062635;28;20038;-70
2022/12/20 00:11:31;;;;;;;15.93;8.43;;;7.40;99.90;;;;;;5044133;28;20048;-72
2022/12/20 00:13:57;;;;;;;16.80;9.10;;;7.40;99.90;;;;;;5062886;28;20024;-71
2022/12/20 00:16:26;;;;;;;19.23;9.07;;;7.40;99.90;;;;;;5044430;28;20025;-70
2022/12/20 00:19:03;;;;;;;21.67;9.27;;;7.40;99.90;;;;;;5062428;28;20028;-71
2022/12/20 00:21:30;;;;;;;15.95;9.40;;;7.40;99.90;;;;;;5060953;28;20060;-71
2022/12/20 00:23:56;;;;;;;17.13;9.25;;;7.40;99.90;;;;;;5045057;28;20033;-71
2022/12/20 00:26:24;;;;;;;17.92;8.30;;;7.50;99.90;;;;;;5055099;28;20076;-71
2022/12/20 00:28:50;;;;;;;19.00;9.20;;;7.40;99.90;;;;;;5061317;28;20451;-71
2022/12/20 00:31:18;;;;;;;16.48;8.93;;;7.50;99.90;;;;;;5061255;28;20060;-70
2022/12/20 00:33:49;;;;;;;17.80;9.35;;;7.40;99.90;;;;;;5060920;28;20512;-70
2022/12/20 00:36:16;;;;;;;22.45;9.63;;;7.50;99.90;;;;;;5060282;28;20147;-72
2022/12/20 00:38:50;;;;;;;18.98;8.68;;;7.50;99.90;;;;;;5060265;28;20025;-71
2022/12/20 00:41:27;;;;;;;16.00;9.13;;;7.50;99.90;;;;;;5061222;28;20414;-69
2022/12/20 00:43:53;;;;;;;14.52;8.52;;;7.50;99.90;;;;;;5061148;28;21579;-71
2022/12/20 00:46:22;;;;;;;16.80;8.52;;;7.50;99.90;;;;;;5051191;28;20409;-72
2022/12/20 00:48:47;;;;;;;15.98;8.77;;;7.50;99.90;;;;;;5043724;28;20112;-68
2022/12/20 00:51:19;;;;;;;16.55;7.80;;;7.50;99.90;;;;;;5061723;28;20021;-68
2022/12/20 00:53:46;;;;;;;18.35;8.13;;;7.50;99.90;;;;;;5050404;28;20029;-70
2022/12/20 00:56:12;;;;;;;15.80;8.70;;;7.50;99.90;;;;;;5041913;28;20040;-68
2022/12/20 00:58:40;;;;;;;18.60;8.55;;;7.50;99.90;;;;;;5049454;28;20081;-68
2022/12/20 01:01:24;;;;;;;16.70;8.38;;;7.50;99.90;;;;;;5054342;28;20032;-68
2022/12/20 01:03:51;;;;;;;15.57;8.65;;;7.50;99.90;;;;;;5060272;28;20063;-69
2022/12/20 01:06:17;;;;;;;18.15;9.18;;;7.50;99.90;;;;;;5054270;28;20028;-71
2022/12/20 01:08:43;;;;;;;19.33;8.55;;;7.50;99.90;;;;;;5049555;28;20025;-70
2022/12/20 01:11:08;;;;;;;17.27;9.40;;;7.50;99.90;;;;;;5057143;28;20112;-70
2022/12/20 01:13:36;;;;;;;20.63;9.27;;;7.60;99.90;;;;;;5053552;28;20096;-71
2022/12/20 01:16:26;;;;;;;19.00;8.70;;;7.60;99.90;;;;;;5042750;28;20025;-69
2022/12/20 01:18:53;;;;;;;20.48;9.52;;;7.60;99.90;;;;;;5056507;28;20041;-69
2022/12/20 01:21:20;;;;;;;20.92;9.38;;;7.70;99.90;;;;;;5051519;28;20049;-69
2022/12/20 01:23:46;;;;;;;18.00;7.82;;;7.70;99.90;;;;;;5058128;28;20089;-70
2022/12/20 01:26:15;;;;;;;15.82;8.93;;;7.80;99.90;;;;;;5060057;28;20036;-70
2022/12/20 01:28:43;;;;;;;23.27;9.35;;;7.80;99.90;;;;;;5060388;28;20050;-70
2022/12/20 01:31:15;;;;;;;14.50;8.43;;;7.90;99.90;;;;;;5059309;28;20025;-71
2022/12/20 01:33:42;;;;;;;15.93;8.85;;;8.00;99.90;;;;;;5059744;28;20047;-70
2022/12/20 01:36:13;;;;;;;18.40;9.13;;;8.10;99.90;;;;;;5059051;28;20017;-70
2022/12/20 01:38:38;;;;;;;15.32;7.68;;;8.10;99.90;;;;;;5058813;28;20048;-71
2022/12/20 01:41:05;;;;;;;20.65;8.90;;;8.20;99.90;;;;;;5059702;28;20047;-73
2022/12/20 01:43:49;;;;;;;18.90;8.13;;;8.20;99.90;;;;;;5042685;28;20028;-72
2022/12/20 01:46:15;;;;;;;20.70;9.05;;;8.30;99.90;;;;;;5042369;28;20044;-72
2022/12/20 01:48:45;;;;;;;15.43;7.75;;;8.30;99.90;;;;;;5059879;28;20029;-69
2022/12/20 01:51:11;;;;;;;18.63;8.27;;;8.30;99.90;;;;;;5042313;28;20036;-69
2022/12/20 01:53:37;;;;;;;15.35;7.85;;;8.40;99.90;;;;;;5058990;28;20017;-73
2022/12/20 01:56:05;;;;;;;17.38;7.82;;;8.40;99.90;;;;;;5033019;28;20025;-72
2022/12/20 01:58:33;;;;;;;19.33;7.88;;;8.40;99.90;;;;;;5050749;28;20028;-71
2022/12/20 02:00:59;;;;;;;17.83;7.93;;;8.40;99.90;;;;;;5050605;28;20107;-71
2022/12/20 02:03:25;;;;;;;19.45;8.25;;;8.40;99.90;;;;;;5042422;28;20076;-73
2022/12/20 02:05:51;;;;;;;20.10;7.20;;;8.50;99.90;;;;;;5050232;28;20049;-70
2022/12/20 02:08:19;;;;;;;14.70;8.20;;;8.50;99.90;;;;;;5050710;28;20512;-72
2022/12/20 02:11:01;;;;;;;17.08;8.40;;;8.60;99.90;;;;;;5050296;28;20051;-71
2022/12/20 02:13:50;;;;;;;19.13;8.30;;;8.60;99.90;;;;;;5051012;28;20036;-72
2022/12/20 02:16:23;;;;;;;19.27;8.30;;;8.60;99.90;;;;;;5050468;28;20033;-71
2022/12/20 02:19:17;;;;;;;14.57;7.22;;;8.60;99.90;;;;;;5050974;28;20025;-72
2022/12/20 02:21:47;;;;;;;14.52;6.97;;;8.70;99.90;;;;;;5023806;28;20868;-71
2022/12/20 02:24:38;;;;;;;16.10;7.85;;;8.70;99.90;;;;;;5054142;28;20022;-73
2022/12/20 02:27:22;;;;;;;14.32;8.13;;;8.70;99.90;;;;;;5037648;28;20389;-72
2022/12/20 02:30:06;;;;;;;16.63;8.05;;;8.70;99.90;;;;;;5050724;28;20397;-72
2022/12/20 02:32:39;;;;;;;15.05;7.38;;;8.70;99.90;;;;;;5049837;28;20075;-72
2022/12/20 02:35:07;;;;;;;19.17;7.97;;;8.70;99.90;;;;;;5050210;28;20083;-71
2022/12/20 02:37:33;;;;;;;14.18;7.43;;;8.80;99.90;;;;;;5074042;28;20028;-72
2022/12/20 02:40:00;;;;;;;16.35;8.07;;;8.80;99.90;;;;;;5049389;28;20386;-73
2022/12/20 02:42:26;;;;;;;16.60;7.80;;;8.70;99.90;;;;;;5074374;28;20033;-72
2022/12/20 02:45:14;;;;;;;13.25;6.85;;;8.80;99.90;;;;;;5051686;28;20029;-72
2022/12/20 02:47:46;;;;;;;13.75;7.28;;;8.70;99.90;;;;;;5041147;28;20376;-72
2022/12/20 02:50:12;;;;;;;13.27;7.65;;;8.70;99.90;;;;;;5056447;28;20021;-72
2022/12/20 02:52:39;;;;;;;15.80;7.80;;;8.70;99.90;;;;;;5055411;28;20021;-72
2022/12/20 02:55:06;;;;;;;13.73;7.25;;;8.70;99.90;;;;;;5041533;28;20025;-73
2022/12/20 02:57:41;;;;;;;12.52;7.43;;;8.70;99.90;;;;;;5055410;28;20492;-74
2022/12/20 03:00:12;;;;;;;12.48;7.50;;;8.60;99.90;;;;;;5059335;28;20104;-73
2022/12/20 03:05:26;;;;;;;15.40;8.18;;;8.60;99.90;;;;;;5058974;28;20044;-72
2022/12/20 03:07:53;;;;;;;14.98;7.82;;;8.60;99.90;;;;;;5041219;28;20017;-72
2022/12/20 03:10:19;;;;;;;17.25;7.75;;;8.60;99.90;;;;;;5059174;28;20036;-72
2022/12/20 03:12:45;;;;;;;14.63;8.27;;;8.60;99.90;;;;;;5046581;28;20037;-72
2022/12/20 03:15:11;;;;;;;14.38;7.25;;;8.50;99.90;;;;;;5038020;28;20021;-70
2022/12/20 03:17:37;;;;;;;14.63;7.50;;;8.60;99.90;;;;;;5053842;28;20026;-72
2022/12/20 03:20:07;;;;;;;17.73;8.27;;;8.50;99.90;;;;;;5049450;28;20056;-72
2022/12/20 03:22:34;;;;;;;18.20;7.18;;;8.50;99.90;;;;;;5053862;28;20130;-72
2022/12/20 03:25:00;;;;;;;12.93;7.43;;;8.50;99.90;;;;;;5040455;28;20055;-71
2022/12/20 03:27:27;;;;;;;13.95;7.10;;;8.50;99.90;;;;;;5059764;28;20044;-73
2022/12/20 03:29:53;;;;;;;13.63;7.20;;;8.50;99.90;;;;;;5041218;28;20029;-70
2022/12/20 03:32:19;;;;;;;13.30;7.55;;;8.40;99.90;;;;;;5056343;28;20029;-71
2022/12/20 03:34:45;;;;;;;18.25;8.05;;;8.50;99.90;;;;;;5061813;28;20126;-72
2022/12/20 03:37:10;;;;;;;15.10;7.43;;;8.40;99.90;;;;;;5034371;28;20072;-73
2022/12/20 03:39:36;;;;;;;17.90;7.10;;;8.40;99.90;;;;;;5054795;28;20029;-71
2022/12/20 03:42:02;;;;;;;15.00;7.10;;;8.40;99.90;;;;;;5048691;28;20076;-71
2022/12/20 03:44:27;;;;;;;15.30;7.05;;;8.40;99.90;;;;;;5054647;28;20025;-71
2022/12/20 03:46:53;;;;;;;19.63;8.07;;;8.40;99.90;;;;;;5051909;28;20033;-71
2022/12/20 03:49:19;;;;;;;14.52;7.60;;;8.40;99.90;;;;;;5051969;28;20025;-71
2022/12/20 03:51:48;;;;;;;17.30;8.30;;;8.40;99.90;;;;;;5054677;28;20047;-71
2022/12/20 03:54:13;;;;;;;17.85;7.47;;;8.40;99.90;;;;;;5034186;28;20040;-72
2022/12/20 03:56:39;;;;;;;14.88;6.45;;;8.40;99.90;;;;;;5052727;28;20021;-70
2022/12/20 03:59:04;;;;;;;15.52;7.72;;;8.40;99.90;;;;;;5052846;28;20524;-71
2022/12/20 04:01:35;;;;;;;17.35;7.43;;;8.40;99.90;;;;;;5052662;28;20557;-71
2022/12/20 04:04:01;;;;;;;14.98;7.13;;;8.40;99.90;;;;;;5052595;28;20127;-72
2022/12/20 04:06:27;;;;;;;15.18;7.75;;;8.40;99.90;;;;;;5053432;28;20033;-72
2022/12/20 04:08:53;;;;;;;18.92;7.05;;;8.40;99.90;;;;;;5039834;28;20033;-70
2022/12/20 04:11:18;;;;;;;12.20;7.05;;;8.40;99.90;;;;;;5043711;28;20017;-70
2022/12/20 04:13:47;;;;;;;13.90;7.00;;;8.30;99.90;;;;;;5036967;28;20029;-72
2022/12/20 04:16:18;;;;;;;16.92;7.20;;;8.30;99.90;;;;;;5052645;28;20021;-72
2022/12/20 04:18:44;;;;;;;13.93;7.07;;;8.30;99.90;;;;;;5053583;28;20021;-71
2022/12/20 04:21:11;;;;;;;12.32;6.85;;;8.40;99.90;;;;;;5052753;28;20057;-71
2022/12/20 04:23:38;;;;;;;14.30;7.80;;;8.20;99.90;;;;;;5052605;28;20039;-69
2022/12/20 04:26:05;;;;;;;14.00;7.50;;;8.30;99.90;;;;;;5054534;28;20021;-70
2022/12/20 04:28:31;;;;;;;16.80;7.80;;;8.30;99.90;;;;;;5062067;28;20488;-70
2022/12/20 04:30:58;;;;;;;13.50;7.03;;;8.30;99.90;;;;;;5061991;28;20033;-68
2022/12/20 04:33:26;;;;;;;14.45;7.40;;;8.30;99.90;;;;;;5045267;28;20024;-71
2022/12/20 04:35:52;;;;;;;16.33;8.05;;;8.30;99.90;;;;;;5062151;28;20025;-69
2022/12/20 04:38:19;;;;;;;15.10;7.85;;;8.30;99.90;;;;;;5057202;28;20025;-69
2022/12/20 04:40:53;;;;;;;14.85;7.75;;;8.30;99.90;;;;;;5052983;28;20028;-69
2022/12/20 04:43:22;;;;;;;17.02;8.50;;;8.30;99.90;;;;;;5052484;28;20028;-72
2022/12/20 04:45:51;;;;;;;16.80;8.32;;;8.30;99.90;;;;;;5050096;28;20222;-69
2022/12/20 04:48:17;;;;;;;15.40;8.48;;;8.40;99.90;;;;;;5060592;28;20020;-69
2022/12/20 04:50:47;;;;;;;15.18;8.55;;;8.20;99.90;;;;;;5043898;28;20028;-70
2022/12/20 04:55:58;;;;;;;18.75;7.97;;;8.40;99.90;;;;;;5054406;28;20117;-69
2022/12/20 04:58:26;;;;;;;16.63;8.20;;;8.30;99.90;;;;;;5060098;28;20509;-70
2022/12/20 05:00:52;;;;;;;15.20;8.65;;;8.20;99.90;;;;;;5043181;28;20036;-69
2022/12/20 05:03:19;;;;;;;17.10;8.35;;;8.30;99.90;;;;;;5055744;28;20125;-68
2022/12/20 05:05:44;;;;;;;21.35;8.75;;;8.20;99.90;;;;;;5054507;28;20026;-69
2022/12/20 05:08:10;;;;;;;16.52;7.60;;;8.20;99.90;;;;;;5049553;28;20032;-69
2022/12/20 05:10:36;;;;;;;14.77;7.65;;;8.20;99.90;;;;;;5055770;28;20032;-70
2022/12/20 05:13:02;;;;;;;18.17;8.38;;;8.30;99.90;;;;;;5061861;28;20033;-71
2022/12/20 05:15:28;;;;;;;21.65;8.82;;;8.20;99.90;;;;;;5051042;28;20089;-68
2022/12/20 05:17:58;;;;;;;17.40;8.10;;;8.20;99.90;;;;;;5060687;28;20075;-68
2022/12/20 05:20:27;;;;;;;17.00;8.45;;;8.20;99.90;;;;;;5059031;28;20041;-68
2022/12/20 05:28:31;;;;;;;17.50;8.57;;;8.20;99.90;;;;;;5056123;28;20193;-70
2022/12/20 05:30:59;;;;;;;15.82;8.02;;;8.20;99.90;;;;;;5042244;28;20033;-72
2022/12/20 05:33:26;;;;;;;26.92;8.00;;;8.20;99.90;;;;;;5059208;28;20013;-70
2022/12/20 05:35:52;;;;;;;24.35;7.97;;;8.20;99.90;;;;;;5058685;28;20071;-70
2022/12/20 05:38:18;;;;;;;16.45;7.75;;;8.30;99.90;;;;;;5058716;28;20021;-70
2022/12/20 05:40:47;;;;;;;13.48;7.88;;;8.30;99.90;;;;;;5058907;28;20393;-68
2022/12/20 05:43:13;;;;;;;20.30;7.18;;;8.30;99.90;;;;;;5058736;28;20054;-69
2022/12/20 05:45:38;;;;;;;14.57;7.88;;;8.30;99.90;;;;;;5058116;28;20021;-68
2022/12/20 05:48:04;;;;;;;15.75;7.75;;;8.40;99.90;;;;;;5058647;28;20112;-70
2022/12/20 05:50:31;;;;;;;19.50;8.07;;;8.40;99.90;;;;;;5047990;28;20017;-71
2022/12/20 05:52:56;;;;;;;17.00;8.55;;;8.50;99.90;;;;;;5050724;28;20022;-68
2022/12/20 05:55:22;;;;;;;17.23;8.10;;;8.50;99.90;;;;;;5045916;28;20021;-69
2022/12/20 05:57:49;;;;;;;15.57;7.95;;;8.60;99.90;;;;;;5051232;28;20355;-68
2022/12/20 06:00:15;;;;;;;15.68;8.02;;;8.60;99.90;;;;;;5048511;28;20112;-68
2022/12/20 06:02:40;;;;;;;17.20;8.32;;;8.70;99.90;;;;;;5047840;28;20035;-68
2022/12/20 06:05:06;;;;;;;13.48;8.77;;;8.70;99.90;;;;;;5057989;28;20081;-68
2022/12/20 06:07:32;;;;;;;24.50;10.70;;;8.80;99.90;;;;;;5058135;28;20033;-66
2022/12/20 06:09:58;;;;;;;21.20;9.63;;;8.80;99.90;;;;;;5058190;28;20047;-70
2022/12/20 06:12:24;;;;;;;17.13;8.90;;;8.90;99.90;;;;;;5056563;28;20037;-69
2022/12/20 06:14:50;;;;;;;16.50;8.65;;;8.90;99.90;;;;;;5051972;28;20044;-68
2022/12/20 06:17:16;;;;;;;17.38;9.25;;;8.90;99.90;;;;;;5057509;28;20069;-69
2022/12/20 06:19:42;;;;;;;19.55;8.65;;;8.90;99.90;;;;;;5019154;28;1095748;-68
2022/12/20 06:22:08;;;;;;;17.35;8.98;;;9.00;99.90;;;;;;5058429;28;20029;-68
2022/12/20 06:24:34;;;;;;;16.48;8.13;;;8.90;99.90;;;;;;5037310;28;20033;-69
2022/12/20 06:27:01;;;;;;;20.20;10.00;;;9.00;99.90;;;;;;5051972;28;20033;-68
2022/12/20 06:29:26;;;;;;;18.33;9.73;;;9.10;99.90;;;;;;5050198;28;20059;-70
2022/12/20 06:31:52;;;;;;;27.90;11.25;;;9.10;99.90;;;;;;5051843;28;20035;-68
2022/12/20 06:34:19;;;;;;;17.50;9.00;;;9.00;99.90;;;;;;5037666;28;20029;-69
2022/12/20 06:36:45;;;;;;;19.70;9.73;;;9.00;99.90;;;;;;5053220;28;20020;-67
2022/12/20 06:39:10;;;;;;;22.35;9.52;;;9.00;99.90;;;;;;5050343;28;20037;-67
2022/12/20 06:41:36;;;;;;;18.90;9.77;;;9.00;99.90;;;;;;5052179;28;20039;-68
2022/12/20 06:44:02;;;;;;;20.85;10.63;;;9.00;99.90;;;;;;5049893;28;20099;-69
2022/12/20 06:46:27;;;;;;;22.30;9.57;;;8.90;99.90;;;;;;5051147;28;20029;-69
2022/12/20 06:48:56;;;;;;;20.55;9.20;;;9.00;99.90;;;;;;5053763;28;20033;-67
2022/12/20 06:51:22;;;;;;;19.25;8.98;;;8.90;99.90;;;;;;5037711;28;20032;-69
2022/12/20 06:53:47;;;;;;;17.23;9.27;;;8.80;99.90;;;;;;5055122;28;20041;-66
2022/12/20 06:56:13;;;;;;;16.83;9.68;;;8.90;99.90;;;;;;5050749;28;20033;-66
2022/12/20 06:58:38;;;;;;;22.85;9.68;;;8.90;99.90;;;;;;5053733;28;20021;-68
2022/12/20 07:01:04;;;;;;;16.27;8.57;;;8.90;99.90;;;;;;5052820;28;20040;-68
2022/12/20 07:03:30;;;;;;;19.00;8.80;;;8.90;99.90;;;;;;5036511;28;20033;-69
2022/12/20 07:05:56;;;;;;;20.38;8.73;;;8.80;99.90;;;;;;5050598;28;20026;-67
2022/12/20 07:08:23;;;;;;;14.90;8.45;;;8.80;99.90;;;;;;5050508;28;20033;-66
2022/12/20 07:10:51;;;;;;;17.58;8.98;;;8.80;99.90;;;;;;5051358;28;20028;-68
2022/12/20 07:13:17;;;;;;;19.73;8.23;;;8.80;99.90;;;;;;5051216;28;20100;-68
2022/12/20 07:15:42;;;;;;;17.33;9.27;;;8.70;99.90;;;;;;5051368;28;20029;-67
2022/12/20 07:18:08;;;;;;;20.33;8.80;;;8.70;99.90;;;;;;5049888;28;20083;-68
2022/12/20 07:20:35;;;;;;;16.33;7.90;;;8.70;99.90;;;;;;5048860;28;20056;-69
2022/12/20 07:23:01;;;;;;;20.27;8.85;;;8.70;99.90;;;;;;5049953;28;20596;-68
2022/12/20 07:25:27;;;;;;;19.95;8.90;;;8.70;99.90;;;;;;5049461;28;20041;-69
2022/12/20 07:27:53;;;;;;;18.10;8.93;;;8.70;99.90;;;;;;5054477;28;20041;-67
2022/12/20 07:30:19;;;;;;;19.48;8.57;;;8.70;99.90;;;;;;5039300;28;20136;-69
2022/12/20 07:32:45;;;;;;;20.17;8.48;;;8.70;99.90;;;;;;5053812;28;20025;-67
2022/12/20 07:35:12;;;;;;;17.67;8.55;;;8.70;99.90;;;;;;5049776;28;20056;-67
2022/12/20 07:37:38;;;;;;;16.05;8.23;;;8.80;99.90;;;;;;5048939;28;20049;-68
2022/12/20 07:40:05;;;;;;;17.83;8.40;;;8.70;99.90;;;;;;5048079;28;20025;-68
2022/12/20 07:42:30;;;;;;;19.52;7.43;;;8.70;99.90;;;;;;5053998;28;20520;-67
2022/12/20 07:44:56;;;;;;;15.45;7.78;;;8.70;99.90;;;;;;5056909;28;20018;-69
2022/12/20 07:47:22;;;;;;;17.23;8.15;;;8.70;99.90;;;;;;5056646;28;20022;-66
2022/12/20 07:49:50;;;;;;;17.20;8.18;;;8.70;99.90;;;;;;5057150;28;20013;-66
2022/12/20 07:52:19;;;;;;;14.18;7.68;;;8.70;99.90;;;;;;5053475;28;20029;-67
2022/12/20 07:55:00;;;;;;;15.23;8.40;;;8.70;99.90;;;;;;5055616;28;20036;-67
2022/12/20 07:57:36;;;;;;;14.23;7.07;;;8.70;99.90;;;;;;5035714;28;20507;-68
2022/12/20 08:00:03;;;;;;;15.30;7.43;;;8.70;99.90;;;;;;5054831;28;20048;-66
2022/12/20 08:02:44;;;;;;;13.90;7.97;;;8.70;99.90;;;;;;5052032;28;20048;-68
2022/12/20 08:05:10;;;;;;;18.23;8.23;;;8.70;99.90;;;;;;5050636;28;20060;-67
2022/12/20 08:07:39;;;;;;;25.52;8.13;;;8.70;99.90;;;;;;5050692;28;20036;-69
2022/12/20 08:10:07;;;;;;;14.25;8.35;;;8.70;99.90;;;;;;5048036;28;20029;-68
2022/12/20 08:12:33;;;;;;;15.52;7.25;;;8.70;99.90;;;;;;5051325;28;20026;-67
2022/12/20 08:14:59;;;;;;;16.23;7.85;;;8.70;99.90;;;;;;5048573;28;20034;-68
2022/12/20 08:17:25;;;;;;;17.73;8.05;;;8.70;99.90;;;;;;5050606;28;20055;-66
2022/12/20 08:19:51;;;;;;;15.57;7.55;;;8.70;99.90;;;;;;5052642;28;20064;-67
2022/12/20 08:22:19;;;;;;;15.23;7.30;;;8.70;99.90;;;;;;5053653;28;20053;-67
2022/12/20 08:24:45;;;;;;;13.88;7.85;;;8.80;99.90;;;;;;5054383;28;21223;-67
2022/12/20 08:27:10;;;;;;;13.13;7.25;;;8.80;99.90;;;;;;5052079;28;20041;-69
2022/12/20 08:29:36;;;;;;;18.25;7.53;;;8.80;99.90;;;;;;5057759;28;20037;-67
2022/12/20 08:32:02;;;;;;;21.77;7.20;;;8.80;99.90;;;;;;5050974;28;20041;-68
2022/12/20 08:34:28;;;;;;;12.27;6.97;;;8.80;99.90;;;;;;5055002;28;20037;-68
2022/12/20 08:36:54;;;;;;;16.15;8.02;;;8.80;99.90;;;;;;5050820;28;20468;-69
2022/12/20 08:39:19;;;;;;;16.63;7.72;;;8.90;99.90;;;;;;5049497;28;20020;-67
2022/12/20 08:41:45;;;;;;;15.13;7.40;;;8.90;99.90;;;;;;5050760;28;20028;-68
2022/12/20 08:44:11;;;;;;;13.75;7.30;;;8.90;99.90;;;;;;5053429;28;20041;-67
2022/12/20 08:46:36;;;;;;;17.42;7.43;;;8.90;99.90;;;;;;5050193;28;20080;-69
2022/12/20 08:49:03;;;;;;;19.92;7.70;;;9.00;99.90;;;;;;5052087;28;20044;-68
2022/12/20 08:51:32;;;;;;;20.00;7.47;;;9.10;99.90;;;;;;5039337;28;20141;-68
2022/12/20 08:54:01;;;;;;;24.98;8.02;;;9.10;99.90;;;;;;5053440;28;20120;-69
2022/12/20 08:56:28;;;;;;;26.30;10.00;;;9.10;99.90;;;;;;5050730;28;20398;-69
2022/12/20 08:58:53;;;;;;;17.17;9.55;;;9.10;99.90;;;;;;5051944;28;20040;-67
2022/12/20 09:01:20;;;;;;;19.83;10.15;;;9.10;99.90;;;;;;5054188;28;20025;-65
2022/12/20 09:03:47;;;;;;;20.27;9.73;;;9.20;99.90;;;;;;5052559;28;20029;-65
2022/12/20 09:06:18;;;;;;;17.80;9.02;;;9.10;99.90;;;;;;5049716;28;20026;-64
2022/12/20 09:08:44;;;;;;;14.13;8.60;;;9.20;99.90;;;;;;5049605;28;20028;-67
2022/12/20 09:11:17;;;;;;;17.00;8.90;;;9.20;99.90;;;;;;5046341;28;20029;-67
2022/12/20 09:13:45;;;;;;;18.52;8.93;;;9.20;99.90;;;;;;5055551;28;20025;-67
2022/12/20 09:16:14;;;;;;;20.80;9.25;;;9.20;99.90;;;;;;5051497;28;20029;-67
2022/12/20 09:18:40;;;;;;;20.23;9.35;;;9.20;99.90;;;;;;5058775;28;20033;-66
2022/12/20 09:21:06;;;;;;;19.83;9.40;;;9.30;99.90;;;;;;5054141;28;20041;-66
2022/12/20 09:23:34;;;;;;;17.98;9.00;;;9.30;99.90;;;;;;5056894;28;20119;-67
2022/12/20 09:26:04;;;;;;;17.05;9.48;;;9.30;99.90;;;;;;5054171;28;20036;-66
2022/12/20 09:28:31;;;;;;;16.80;9.10;;;9.40;99.90;;;;;;5055118;28;20032;-68
2022/12/20 09:31:07;;;;;;;16.52;8.52;;;9.50;99.90;;;;;;5056062;28;20021;-65
2022/12/20 09:33:33;;;;;;;15.88;8.55;;;9.40;99.90;;;;;;5052066;28;20047;-67
2022/12/20 09:36:01;;;;;;;16.38;8.57;;;9.50;99.90;;;;;;5056252;28;20024;-68
2022/12/20 09:38:28;;;;;;;16.85;8.25;;;9.50;99.90;;;;;;5060056;28;20036;-67
2022/12/20 09:41:02;;;;;;;14.20;6.72;;;9.50;99.90;;;;;;5060199;28;20091;-67
2022/12/20 09:43:29;;;;;;;17.55;8.38;;;9.60;99.90;;;;;;5053294;28;20037;-67
2022/12/20 09:45:59;;;;;;;20.23;8.70;;;9.70;99.90;;;;;;5058387;28;20024;-66
2022/12/20 09:48:30;;;;;;;14.18;7.65;;;9.70;99.90;;;;;;5057901;28;20036;-67
2022/12/20 09:51:24;;;;;;;16.70;8.60;;;9.70;99.90;;;;;;5056088;28;20029;-66
2022/12/20 09:54:02;;;;;;;15.25;6.88;;;9.80;99.90;;;;;;5057143;28;20060;-67
2022/12/20 09:56:36;;;;;;;14.25;7.93;;;9.80;99.90;;;;;;5049038;28;20484;-67
2022/12/20 09:59:03;;;;;;;16.02;8.07;;;9.90;99.90;;;;;;5059212;28;20029;-66
2022/12/20 10:01:32;;;;;;;12.90;6.95;;;9.90;99.90;;;;;;5059133;28;20043;-68
2022/12/20 10:04:02;;;;;;;17.85;7.30;;;9.90;99.90;;;;;;5059173;28;20698;-67
2022/12/20 10:06:54;;;;;;;15.65;7.05;;;10.00;99.90;;;;;;5059150;28;20116;-67
2022/12/20 10:09:51;;;;;;;14.13;7.00;;;10.00;99.90;;;;;;5058567;28;20083;-67
2022/12/20 10:12:32;;;;;;;13.80;6.88;;;10.00;99.90;;;;;;5059214;28;20119;-68
2022/12/20 10:15:28;;;;;;;12.32;6.30;;;10.10;99.90;;;;;;5042048;28;20025;-68
2022/12/20 10:18:05;;;;;;;9.82;6.22;;;10.10;99.90;;;;;;5057404;28;20029;-67
2022/12/20 10:20:52;;;;;;;13.32;5.95;;;10.10;99.90;;;;;;5058358;28;20045;-68
2022/12/20 10:23:39;;;;;;;11.77;6.65;;;10.10;99.90;;;;;;5047549;28;20051;-66
2022/12/20 10:26:10;;;;;;;11.65;6.60;;;10.20;99.90;;;;;;5046840;28;20028;-69
2022/12/20 10:28:37;;;;;;;14.13;6.80;;;10.30;99.90;;;;;;5053884;28;20020;-68
2022/12/20 10:31:18;;;;;;;15.00;5.97;;;10.30;99.90;;;;;;5057118;28;20149;-69
2022/12/20 10:33:45;;;;;;;12.25;6.35;;;10.30;99.90;;;;;;5056077;28;20029;-67
2022/12/20 10:36:37;;;;;;;13.85;6.47;;;10.50;99.90;;;;;;5039158;28;20357;-69
2022/12/20 10:39:08;;;;;;;13.48;6.32;;;10.50;99.90;;;;;;5037471;28;20045;-68
2022/12/20 10:41:41;;;;;;;13.90;5.95;;;10.60;99.90;;;;;;5057554;28;20397;-67
2022/12/20 10:44:27;;;;;;;12.70;6.07;;;10.60;99.90;;;;;;5052923;28;20073;-68
2022/12/20 10:46:58;;;;;;;12.55;5.95;;;10.60;99.90;;;;;;5057399;28;20036;-68
2022/12/20 10:49:30;;;;;;;11.60;6.20;;;10.70;99.90;;;;;;5050767;28;20025;-67
2022/12/20 10:52:08;;;;;;;17.33;5.75;;;10.70;99.90;;;;;;5050409;28;20039;-69
2022/12/20 10:54:39;;;;;;;11.65;5.97;;;10.70;99.90;;;;;;5052617;28;20032;-71
2022/12/20 10:57:13;;;;;;;10.88;5.93;;;10.80;99.90;;;;;;5043855;28;20041;-69
2022/12/20 10:59:44;;;;;;;11.57;5.50;;;10.80;99.90;;;;;;5055524;28;20028;-69
2022/12/20 11:02:32;;;;;;;11.55;5.53;;;10.80;99.90;;;;;;5055650;28;20071;-69
2022/12/20 11:05:00;;;;;;;11.07;5.30;;;10.80;99.90;;;;;;5049009;28;20029;-68
2022/12/20 11:07:32;;;;;;;13.30;5.40;;;10.80;99.90;;;;;;5049881;28;20025;-71
2022/12/20 11:10:02;;;;;;;12.95;4.97;;;10.90;99.90;;;;;;5051002;28;20485;-69
2022/12/20 11:12:27;;;;;;;10.65;6.10;;;10.80;99.90;;;;;;5051110;28;20022;-69
2022/12/20 11:15:18;;;;;;;9.50;5.07;;;10.90;99.90;;;;;;5049922;28;20075;-70
2022/12/20 11:17:48;;;;;;;12.65;5.93;;;10.90;99.90;;;;;;5051498;28;20095;-69
2022/12/20 11:20:34;;;;;;;13.40;5.50;;;10.90;99.90;;;;;;5049332;28;20059;-73
2022/12/20 11:23:05;;;;;;;13.52;5.60;;;10.80;99.90;;;;;;5050757;28;20044;-70
2022/12/20 11:25:50;;;;;;;14.73;5.65;;;10.70;99.90;;;;;;5053622;28;20112;-69
2022/12/20 11:28:53;;;;;;;9.43;4.88;;;10.70;99.90;;;;;;5050180;28;20037;-68
2022/12/20 11:31:18;;;;;;;14.32;5.78;;;10.70;99.90;;;;;;5038282;28;20029;-68
2022/12/20 11:33:59;;;;;;;16.00;6.68;;;10.60;99.90;;;;;;5050268;28;20131;-68
2022/12/20 11:36:39;;;;;;;14.65;6.18;;;10.60;99.90;;;;;;5051312;28;20040;-67
2022/12/20 11:39:44;;;;;;;15.48;5.35;;;10.60;99.90;;;;;;5028621;28;20029;-68
2022/12/20 11:42:19;;;;;;;14.77;6.15;;;10.50;99.90;;;;;;5050649;28;20097;-67
2022/12/20 11:45:03;;;;;;;19.02;6.78;;;10.40;99.90;;;;;;5048698;28;20031;-67
2022/12/20 11:47:46;;;;;;;14.68;6.40;;;10.40;99.90;;;;;;5050251;28;20029;-68
2022/12/20 11:50:49;;;;;;;13.50;6.70;;;10.40;99.90;;;;;;5049680;28;20072;-67
2022/12/20 11:53:26;;;;;;;13.77;6.82;;;10.30;99.90;;;;;;5054404;28;20048;-68
2022/12/20 11:55:57;;;;;;;19.63;7.28;;;10.30;99.90;;;;;;5043217;28;20025;-70
2022/12/20 11:58:55;;;;;;;17.15;7.47;;;10.30;99.90;;;;;;5036811;28;20021;-68
2022/12/20 12:01:28;;;;;;;22.20;8.05;;;10.30;99.90;;;;;;5054558;28;20037;-70
2022/12/20 12:04:14;;;;;;;16.42;8.48;;;10.20;99.90;;;;;;5057246;28;20059;-70
2022/12/20 12:06:50;;;;;;;20.77;8.75;;;10.20;99.90;;;;;;5041136;28;20033;-69
2022/12/20 12:09:21;;;;;;;17.85;8.38;;;10.20;99.90;;;;;;5043037;28;20032;-68
2022/12/20 12:12:03;;;;;;;20.90;8.65;;;10.20;99.90;;;;;;5059831;28;20047;-67
2022/12/20 12:15:01;;;;;;;20.00;8.15;;;10.20;99.90;;;;;;5040613;28;20064;-67
2022/12/20 12:17:38;;;;;;;14.25;8.20;;;10.10;99.90;;;;;;5058583;28;20052;-71
2022/12/20 12:20:20;;;;;;;23.90;9.13;;;10.10;99.90;;;;;;5057923;28;20045;-71
2022/12/20 12:22:57;;;;;;;14.98;7.03;;;10.10;99.90;;;;;;5058707;28;20080;-68
2022/12/20 12:25:26;;;;;;;17.42;7.70;;;10.10;99.90;;;;;;5058484;28;20047;-70
2022/12/20 12:28:02;;;;;;;15.10;8.10;;;10.10;99.90;;;;;;5032486;28;20130;-69
2022/12/20 12:30:45;;;;;;;15.43;7.85;;;10.10;99.90;;;;;;5033656;28;20021;-69
2022/12/20 12:33:21;;;;;;;16.13;8.23;;;10.00;99.90;;;;;;5034838;28;20036;-68
2022/12/20 12:36:30;;;;;;;17.58;7.18;;;10.10;99.90;;;;;;5052173;28;20021;-68
2022/12/20 12:39:23;;;;;;;21.83;10.32;;;10.00;99.90;;;;;;5041487;28;20156;-68
2022/12/20 12:42:01;;;;;;;25.58;11.88;;;10.00;99.90;;;;;;5040886;28;20029;-72
2022/12/20 12:44:47;;;;;;;30.13;10.95;;;10.00;99.90;;;;;;5050117;28;20104;-69
2022/12/20 12:47:27;;;;;;;28.55;12.30;;;10.00;99.90;;;;;;5041668;28;20045;-70
2022/12/20 12:49:57;;;;;;;27.05;12.75;;;10.00;99.90;;;;;;5052704;28;20079;-69
2022/12/20 12:52:40;;;;;;;24.40;10.43;;;10.00;99.90;;;;;;5040813;28;20040;-70
2022/12/20 12:55:42;;;;;;;21.85;9.43;;;10.00;99.90;;;;;;5041153;28;20037;-70
2022/12/20 12:58:33;;;;;;;19.63;9.95;;;10.00;99.90;;;;;;5041273;28;20037;-70
2022/12/20 13:01:03;;;;;;;25.05;10.00;;;10.00;99.90;;;;;;5052449;28;20037;-68
2022/12/20 13:03:50;;;;;;;18.77;9.25;;;10.00;99.90;;;;;;5053737;28;20046;-72
2022/12/20 13:06:28;;;;;;;24.10;10.80;;;10.00;99.90;;;;;;5047567;28;20032;-68
2022/12/20 13:09:02;;;;;;;23.17;10.02;;;9.90;99.90;;;;;;5050488;28;20103;-69
2022/12/20 13:11:32;;;;;;;22.00;10.30;;;10.00;99.90;;;;;;5057587;28;20025;-72
2022/12/20 13:14:27;;;;;;;23.42;10.23;;;9.90;99.90;;;;;;5042301;28;20028;-71